createdAt,value
2018-12-21T00:01:28.284Z,8.50
2018-12-21T00:03:56.904Z,8.50
2018-12-21T00:06:25.428Z,8.50
2018-12-21T00:08:53.887Z,8.50
2018-12-21T00:11:22.470Z,8.50
2018-12-21T00:13:51.266Z,8.60
2018-12-21T00:16:19.942Z,8.50
2018-12-21T00:18:48.430Z,8.50
2018-12-21T00:21:21.745Z,8.50
2018-12-21T00:23:47.528Z,8.50
2018-12-21T00:26:16.126Z,8.50
2018-12-21T00:28:45.019Z,8.50
2018-12-21T00:31:18.835Z,8.60
2018-12-21T00:33:52.734Z,8.50
2018-12-21T00:36:26.536Z,8.60
2018-12-21T00:39:00.322Z,8.60
2018-12-21T00:41:28.110Z,8.60
2018-12-21T00:44:04.788Z,8.60
2018-12-21T00:46:35.506Z,8.60
2018-12-21T00:49:04.204Z,8.60
2018-12-21T00:51:32.900Z,8.60
2018-12-21T00:54:01.689Z,8.60
2018-12-21T00:56:30.416Z,8.60
2018-12-21T00:58:58.978Z,8.60
2018-12-21T01:01:29.482Z,8.60
2018-12-21T01:03:58.172Z,8.60
2018-12-21T01:06:26.748Z,8.60
2018-12-21T01:08:55.347Z,8.60
2018-12-21T01:11:23.968Z,8.70
2018-12-21T01:13:52.503Z,8.70
2018-12-21T01:16:21.106Z,8.70
2018-12-21T01:18:49.897Z,8.70
2018-12-21T01:21:18.403Z,8.70
2018-12-21T01:23:46.867Z,8.70
2018-12-21T01:26:15.376Z,8.70
2018-12-21T01:28:44.131Z,8.70
2018-12-21T01:31:12.921Z,8.70
2018-12-21T01:33:41.554Z,8.70
2018-12-21T01:36:10.161Z,8.70
2018-12-21T01:38:38.636Z,8.70
2018-12-21T01:41:07.168Z,8.80
2018-12-21T01:43:35.995Z,8.70
2018-12-21T01:46:04.629Z,8.80
2018-12-21T01:48:33.117Z,8.70
2018-12-21T01:51:01.649Z,8.80
2018-12-21T01:53:30.225Z,8.80
2018-12-21T01:55:58.757Z,8.80
2018-12-21T01:58:27.324Z,8.80
2018-12-21T02:00:56.150Z,8.80
2018-12-21T02:03:24.834Z,8.80
2018-12-21T02:05:53.594Z,8.80
2018-12-21T02:08:22.118Z,8.80
2018-12-21T02:10:50.896Z,8.80
2018-12-21T02:13:19.371Z,8.80
2018-12-21T02:15:57.720Z,8.80
2018-12-21T02:18:26.422Z,8.80
2018-12-21T02:20:54.881Z,8.90
2018-12-21T02:23:23.414Z,8.80
2018-12-21T02:25:51.910Z,8.80
2018-12-21T02:28:20.380Z,8.80
2018-12-21T02:30:48.898Z,8.70
2018-12-21T02:33:17.466Z,8.70
2018-12-21T02:35:46.049Z,8.60
2018-12-21T02:38:14.644Z,8.60
2018-12-21T02:40:43.202Z,8.60
2018-12-21T02:43:13.996Z,8.60
2018-12-21T02:45:42.473Z,8.60
2018-12-21T02:48:10.979Z,8.50
2018-12-21T02:50:39.515Z,8.50
2018-12-21T02:53:08.102Z,8.50
2018-12-21T02:55:36.676Z,8.50
2018-12-21T02:58:05.212Z,8.50
2018-12-21T03:00:33.762Z,8.50
2018-12-21T03:03:02.235Z,8.50
2018-12-21T03:05:30.814Z,8.50
2018-12-21T03:11:19.387Z,8.50
2018-12-21T03:13:47.939Z,8.50
2018-12-21T03:16:16.498Z,8.50
2018-12-21T03:18:45.048Z,8.50
2018-12-21T03:21:13.540Z,8.50
2018-12-21T03:23:42.115Z,8.50
2018-12-21T03:26:10.728Z,8.50
2018-12-21T03:28:39.431Z,8.40
2018-12-21T03:31:07.937Z,8.40
2018-12-21T03:33:36.573Z,8.40
2018-12-21T03:36:05.300Z,8.40
2018-12-21T03:38:33.785Z,8.40
2018-12-21T03:41:02.447Z,8.40
2018-12-21T03:43:31.084Z,8.40
2018-12-21T03:45:59.581Z,8.40
2018-12-21T03:48:28.123Z,8.40
2018-12-21T03:50:56.607Z,8.40
2018-12-21T03:53:25.132Z,8.30
2018-12-21T03:55:53.926Z,8.30
2018-12-21T03:58:22.438Z,8.30
2018-12-21T04:00:50.964Z,8.30
2018-12-21T04:03:19.533Z,8.40
2018-12-21T04:05:48.131Z,8.40
2018-12-21T04:08:16.617Z,8.40
2018-12-21T04:10:45.187Z,8.40
2018-12-21T04:13:13.798Z,8.40
2018-12-21T04:15:42.303Z,8.40
2018-12-21T04:18:10.884Z,8.40
2018-12-21T04:20:39.356Z,8.40
2018-12-21T04:23:07.953Z,8.40
2018-12-21T04:25:36.516Z,8.40
2018-12-21T04:28:05.065Z,8.40
2018-12-21T04:30:33.675Z,8.40
2018-12-21T04:33:02.296Z,8.50
2018-12-21T04:35:30.946Z,8.50
2018-12-21T04:37:59.487Z,8.50
2018-12-21T04:40:28.016Z,8.50
2018-12-21T04:42:56.481Z,8.50
2018-12-21T04:45:25.034Z,8.50
2018-12-21T04:47:53.572Z,8.50
2018-12-21T04:50:22.275Z,8.60
2018-12-21T04:52:50.821Z,8.60
2018-12-21T04:55:19.346Z,8.60
2018-12-21T04:57:47.918Z,8.70
2018-12-21T05:00:16.404Z,8.70
2018-12-21T05:02:44.996Z,8.70
2018-12-21T05:05:13.494Z,8.80
2018-12-21T05:07:42.166Z,8.80
2018-12-21T05:10:11.256Z,8.90
2018-12-21T05:12:39.898Z,8.90
2018-12-21T05:15:08.525Z,8.90
2018-12-21T05:17:37.209Z,9.00
2018-12-21T05:20:06.332Z,9.00
2018-12-21T05:22:34.908Z,9.00
2018-12-21T05:25:03.620Z,9.10
2018-12-21T05:27:32.113Z,9.10
2018-12-21T05:30:00.608Z,9.10
2018-12-21T05:32:29.286Z,9.20
2018-12-21T05:34:57.877Z,9.20
2018-12-21T05:37:26.380Z,9.20
2018-12-21T05:39:54.988Z,9.20
2018-12-21T05:42:23.486Z,9.20
2018-12-21T05:44:51.976Z,9.20
2018-12-21T05:47:20.495Z,9.30
2018-12-21T05:49:49.074Z,9.30
2018-12-21T05:52:17.658Z,9.30
2018-12-21T05:54:46.320Z,9.40
2018-12-21T05:57:14.860Z,9.40
2018-12-21T05:59:43.440Z,9.40
2018-12-21T06:02:12.156Z,9.40
2018-12-21T06:04:40.651Z,9.40
2018-12-21T06:07:09.183Z,9.40
2018-12-21T06:09:37.796Z,9.40
2018-12-21T06:12:06.378Z,9.40
2018-12-21T06:14:34.842Z,9.50
2018-12-21T06:17:03.334Z,9.50
2018-12-21T06:19:32.009Z,9.50
2018-12-21T06:22:00.507Z,9.50
2018-12-21T06:24:29.111Z,9.50
2018-12-21T06:26:57.592Z,9.60
2018-12-21T06:29:26.178Z,9.50
2018-12-21T06:31:54.717Z,9.60
2018-12-21T06:34:23.324Z,9.60
2018-12-21T06:36:51.827Z,9.60
2018-12-21T06:39:20.519Z,9.60
2018-12-21T06:41:49.014Z,9.60
2018-12-21T06:44:17.516Z,9.70
2018-12-21T06:46:46.120Z,9.70
2018-12-21T06:49:14.627Z,9.70
2018-12-21T06:51:43.316Z,9.70
2018-12-21T06:54:11.840Z,9.70
2018-12-21T06:56:40.501Z,9.70
2018-12-21T06:59:09.199Z,9.80
2018-12-21T07:01:37.823Z,9.80
2018-12-21T07:04:06.321Z,9.80
2018-12-21T07:06:34.842Z,9.80
2018-12-21T07:09:04.769Z,9.80
2018-12-21T07:11:33.437Z,9.80
2018-12-21T07:14:02.175Z,9.90
2018-12-21T07:16:30.811Z,9.80
2018-12-21T07:18:59.361Z,9.90
2018-12-21T07:21:27.965Z,9.90
2018-12-21T07:23:56.459Z,9.90
2018-12-21T07:26:24.975Z,9.90
2018-12-21T07:28:53.477Z,10.00
2018-12-21T07:31:21.997Z,10.00
2018-12-21T07:33:50.796Z,10.00
2018-12-21T07:36:19.452Z,10.00
2018-12-21T07:38:48.059Z,10.00
2018-12-21T07:41:16.633Z,10.10
2018-12-21T07:43:45.224Z,10.10
2018-12-21T07:46:13.803Z,10.10
2018-12-21T07:48:42.715Z,10.20
2018-12-21T07:51:11.272Z,10.20
2018-12-21T07:53:39.848Z,10.30
2018-12-21T07:56:08.418Z,10.30
2018-12-21T07:58:36.914Z,10.40
2018-12-21T08:01:05.398Z,10.40
2018-12-21T08:03:34.024Z,10.40
2018-12-21T08:06:02.728Z,10.50
2018-12-21T08:08:31.402Z,10.50
2018-12-21T08:11:00.088Z,10.60
2018-12-21T08:13:28.612Z,10.60
2018-12-21T08:15:57.195Z,10.60
2018-12-21T08:18:25.819Z,10.70
2018-12-21T08:20:54.550Z,10.80
2018-12-21T08:23:23.101Z,10.80
2018-12-21T08:25:51.601Z,10.90
2018-12-21T08:28:20.127Z,11.00
2018-12-21T08:30:48.643Z,11.00
2018-12-21T08:33:17.797Z,11.10
2018-12-21T08:35:46.334Z,11.20
2018-12-21T08:38:14.920Z,11.30
2018-12-21T08:40:43.529Z,11.40
2018-12-21T08:43:12.183Z,11.40
2018-12-21T08:45:40.791Z,11.50
2018-12-21T08:48:09.457Z,11.60
2018-12-21T08:50:37.982Z,11.70
2018-12-21T08:53:06.505Z,11.80
2018-12-21T08:55:35.123Z,11.80
2018-12-21T08:58:03.630Z,11.80
2018-12-21T09:00:32.251Z,11.90
2018-12-21T09:03:00.764Z,11.90
2018-12-21T09:05:29.555Z,12.00
2018-12-21T09:07:58.285Z,12.00
2018-12-21T09:10:26.993Z,12.10
2018-12-21T09:12:55.671Z,12.10
2018-12-21T09:15:24.911Z,12.10
2018-12-21T09:17:53.593Z,12.20
2018-12-21T09:20:22.378Z,12.20
2018-12-21T09:22:50.969Z,12.20
2018-12-21T09:25:19.504Z,12.30
2018-12-21T09:27:47.982Z,12.30
2018-12-21T09:30:16.550Z,12.40
2018-12-21T09:32:45.126Z,12.40
2018-12-21T09:35:13.787Z,12.40
2018-12-21T09:37:42.380Z,12.40
2018-12-21T09:40:12.496Z,12.40
2018-12-21T09:42:40.996Z,12.50
2018-12-21T09:45:09.674Z,12.50
2018-12-21T09:47:38.180Z,12.50
2018-12-21T09:50:09.030Z,12.60
2018-12-21T09:52:37.638Z,12.70
2018-12-21T09:55:07.498Z,12.70
2018-12-21T09:57:36.281Z,12.70
2018-12-21T10:00:07.290Z,12.80
2018-12-21T10:02:36.097Z,12.80
2018-12-21T10:05:05.128Z,12.80
2018-12-21T10:07:33.658Z,12.80
2018-12-21T10:10:02.280Z,12.80
2018-12-21T10:12:30.874Z,12.80
2018-12-21T10:14:59.416Z,12.80
2018-12-21T10:17:28.016Z,12.80
2018-12-21T10:19:56.650Z,12.90
2018-12-21T10:22:26.169Z,12.80
2018-12-21T10:24:54.676Z,12.80
2018-12-21T10:27:23.285Z,12.80
2018-12-21T10:29:51.825Z,12.80
2018-12-21T10:32:20.321Z,12.80
2018-12-21T10:34:48.837Z,12.80
2018-12-21T10:37:17.510Z,12.80
2018-12-21T10:39:46.029Z,12.80
2018-12-21T10:42:14.519Z,12.80
2018-12-21T10:44:43.061Z,12.90
2018-12-21T10:47:11.659Z,12.90
2018-12-21T10:49:40.251Z,13.00
2018-12-21T10:52:08.725Z,13.00
2018-12-21T10:54:37.285Z,13.00
2018-12-21T10:57:05.757Z,13.00
2018-12-21T10:59:34.416Z,13.00
2018-12-21T11:02:03.066Z,13.00
2018-12-21T11:04:31.767Z,13.00
2018-12-21T11:07:00.293Z,13.00
2018-12-21T11:09:28.791Z,13.00
2018-12-21T11:11:57.601Z,13.00
2018-12-21T11:14:26.094Z,13.00
2018-12-21T11:16:54.656Z,13.00
2018-12-21T11:19:23.425Z,13.10
2018-12-21T11:21:51.977Z,13.20
2018-12-21T11:24:20.596Z,13.30
2018-12-21T11:26:49.108Z,13.30
2018-12-21T11:29:17.665Z,13.30
2018-12-21T11:31:46.223Z,13.30
2018-12-21T11:34:14.925Z,13.20
2018-12-21T11:36:43.639Z,13.20
2018-12-21T11:39:12.268Z,13.10
2018-12-21T11:41:40.882Z,13.00
2018-12-21T11:44:09.396Z,13.00
2018-12-21T11:46:37.969Z,12.90
2018-12-21T11:49:06.509Z,12.90
2018-12-21T11:51:35.211Z,12.90
2018-12-21T11:54:03.891Z,12.90
2018-12-21T11:56:32.436Z,12.90
2018-12-21T11:59:01.024Z,13.00
2018-12-21T12:01:29.713Z,13.10
2018-12-21T12:03:58.729Z,13.20
2018-12-21T12:06:27.314Z,13.20
2018-12-21T12:08:55.931Z,13.20
2018-12-21T12:11:24.509Z,13.20
2018-12-21T12:13:53.102Z,13.20
2018-12-21T12:16:21.689Z,13.20
2018-12-21T12:18:50.313Z,13.20
2018-12-21T12:21:18.991Z,13.30
2018-12-21T12:23:47.496Z,13.30
2018-12-21T12:26:16.045Z,13.30
2018-12-21T12:28:44.652Z,13.40
2018-12-21T12:31:13.161Z,13.30
2018-12-21T12:33:41.786Z,13.40
2018-12-21T12:36:10.450Z,13.30
2018-12-21T12:38:38.957Z,13.40
2018-12-21T12:41:07.473Z,13.30
2018-12-21T12:43:36.006Z,13.30
2018-12-21T12:46:06.639Z,13.30
2018-12-21T12:48:35.220Z,13.30
2018-12-21T12:51:03.899Z,13.40
2018-12-21T12:53:32.473Z,13.30
2018-12-21T12:56:00.981Z,13.30
2018-12-21T12:58:29.521Z,13.30
2018-12-21T13:00:58.334Z,13.30
2018-12-21T13:03:27.004Z,13.30
2018-12-21T13:05:55.514Z,13.30
2018-12-21T13:08:24.213Z,13.30
2018-12-21T13:10:52.958Z,13.20
2018-12-21T13:13:21.592Z,13.30
2018-12-21T13:15:50.201Z,13.30
2018-12-21T13:18:18.764Z,13.30
2018-12-21T13:20:47.422Z,13.30
2018-12-21T13:23:15.916Z,13.20
2018-12-21T13:25:44.454Z,13.20
2018-12-21T13:28:13.051Z,13.20
2018-12-21T13:30:41.658Z,13.20
2018-12-21T13:33:10.220Z,13.20
2018-12-21T13:35:38.772Z,13.10
2018-12-21T13:38:07.348Z,13.10
2018-12-21T13:40:35.851Z,13.00
2018-12-21T13:43:04.588Z,13.00
2018-12-21T13:45:33.081Z,12.90
2018-12-21T13:48:01.614Z,12.90
2018-12-21T13:50:30.193Z,12.90
2018-12-21T13:52:58.690Z,12.80
2018-12-21T13:55:27.253Z,12.80
2018-12-21T13:57:55.810Z,12.80
2018-12-21T14:00:24.398Z,12.80
2018-12-21T14:02:52.950Z,12.80
2018-12-21T14:05:21.499Z,12.80
2018-12-21T14:07:50.216Z,12.80
2018-12-21T14:10:18.908Z,12.70
2018-12-21T14:12:47.478Z,12.70
2018-12-21T14:15:15.996Z,12.60
2018-12-21T14:17:44.545Z,12.60
2018-12-21T14:20:13.208Z,12.60
2018-12-21T14:22:41.697Z,12.60
2018-12-21T14:25:10.209Z,12.60
2018-12-21T14:27:38.758Z,12.60
2018-12-21T14:30:08.989Z,12.60
2018-12-21T14:32:37.557Z,12.50
2018-12-21T14:35:07.611Z,12.50
2018-12-21T14:37:36.375Z,12.50
2018-12-21T14:40:05.922Z,12.50
2018-12-21T14:42:34.484Z,12.50
2018-12-21T14:45:03.093Z,12.50
2018-12-21T14:47:31.661Z,12.40
2018-12-21T14:50:00.289Z,12.40
2018-12-21T14:52:29.131Z,12.40
2018-12-21T14:54:57.745Z,12.40
2018-12-21T14:57:26.401Z,12.40
2018-12-21T14:59:55.035Z,12.40
2018-12-21T15:02:23.569Z,12.40
2018-12-21T15:04:52.191Z,12.40
2018-12-21T15:07:20.849Z,12.30
2018-12-21T15:09:49.452Z,12.30
2018-12-21T15:12:18.127Z,12.30
2018-12-21T15:14:46.724Z,12.40
2018-12-21T15:17:15.601Z,12.30
2018-12-21T15:19:44.188Z,12.30
2018-12-21T15:22:12.765Z,12.30
2018-12-21T15:24:41.459Z,12.20
2018-12-21T15:27:09.987Z,12.30
2018-12-21T15:29:38.565Z,12.20
2018-12-21T15:32:07.091Z,12.20
2018-12-21T15:34:35.601Z,12.20
2018-12-21T15:37:04.131Z,12.20
2018-12-21T15:39:32.752Z,12.20
2018-12-21T15:42:01.337Z,12.20
2018-12-21T15:44:29.940Z,12.20
2018-12-21T15:46:58.520Z,12.20
2018-12-21T15:49:27.100Z,12.20
2018-12-21T15:51:55.578Z,12.20
2018-12-21T15:54:24.171Z,12.20
2018-12-21T15:56:52.772Z,12.20
2018-12-21T15:59:21.339Z,12.20
2018-12-21T16:01:49.933Z,12.20
2018-12-21T16:04:18.715Z,12.10
2018-12-21T16:06:47.321Z,12.10
2018-12-21T16:09:15.851Z,12.10
2018-12-21T16:11:44.423Z,12.00
2018-12-21T16:14:13.154Z,12.00
2018-12-21T16:16:41.697Z,12.00
2018-12-21T16:19:10.179Z,12.00
2018-12-21T16:21:38.907Z,12.00
2018-12-21T16:24:07.743Z,12.00
2018-12-21T16:26:36.291Z,12.00
2018-12-21T16:29:05.077Z,12.10
2018-12-21T16:31:33.761Z,12.00
2018-12-21T16:34:02.429Z,12.00
2018-12-21T16:36:31.035Z,12.00
2018-12-21T16:38:59.617Z,11.90
2018-12-21T16:41:28.177Z,12.00
2018-12-21T16:43:56.686Z,12.00
2018-12-21T16:46:25.225Z,11.90
2018-12-21T16:48:53.756Z,11.90
2018-12-21T16:51:22.266Z,11.90
2018-12-21T16:53:50.780Z,11.90
2018-12-21T16:56:19.369Z,11.90
2018-12-21T16:58:47.988Z,11.90
2018-12-21T17:01:16.569Z,11.90
2018-12-21T17:03:45.174Z,11.90
2018-12-21T17:06:13.749Z,12.00
2018-12-21T17:08:42.338Z,11.90
2018-12-21T17:11:11.117Z,11.90
2018-12-21T17:13:39.644Z,11.90
2018-12-21T17:16:08.225Z,11.80
2018-12-21T17:18:37.261Z,11.70
2018-12-21T17:21:05.852Z,11.70
2018-12-21T17:23:34.555Z,11.70
2018-12-21T17:26:03.112Z,11.70
2018-12-21T17:28:31.618Z,11.70
2018-12-21T17:31:00.168Z,11.60
2018-12-21T17:33:28.791Z,11.60
2018-12-21T17:35:57.470Z,11.60
2018-12-21T17:38:26.052Z,11.70
2018-12-21T17:40:54.844Z,11.70
2018-12-21T17:43:23.442Z,11.60
2018-12-21T17:45:52.039Z,11.60
2018-12-21T17:48:20.582Z,11.50
2018-12-21T17:50:49.118Z,11.50
2018-12-21T17:53:17.854Z,11.50
2018-12-21T17:55:46.456Z,11.40
2018-12-21T17:58:14.962Z,11.30
2018-12-21T18:00:43.547Z,11.30
2018-12-21T18:04:21.637Z,11.30
2018-12-21T18:06:50.192Z,11.30
2018-12-21T18:09:19.216Z,11.20
2018-12-21T18:11:47.821Z,11.20
2018-12-21T18:14:16.463Z,11.30
2018-12-21T18:16:45.047Z,11.40
2018-12-21T18:19:13.647Z,11.40
2018-12-21T18:21:46.701Z,11.40
2018-12-21T18:24:15.471Z,11.40
2018-12-21T18:26:44.057Z,11.40
2018-12-21T18:29:12.673Z,11.40
2018-12-21T18:31:47.873Z,11.40
2018-12-21T18:34:20.142Z,11.50
2018-12-21T18:36:48.699Z,11.50
2018-12-21T18:39:17.479Z,11.50
2018-12-21T18:41:46.055Z,11.50
2018-12-21T18:44:14.641Z,11.50
2018-12-21T18:46:43.228Z,11.50
2018-12-21T18:49:11.835Z,11.50
2018-12-21T18:51:40.480Z,11.60
2018-12-21T18:54:09.148Z,11.50
2018-12-21T18:56:47.394Z,11.50
2018-12-21T18:59:16.208Z,11.50
2018-12-21T19:01:44.695Z,11.50
2018-12-21T19:04:13.459Z,11.50
2018-12-21T19:06:42.042Z,11.40
2018-12-21T19:09:10.713Z,11.40
2018-12-21T19:11:39.345Z,11.50
2018-12-21T19:14:07.909Z,11.50
2018-12-21T19:16:36.577Z,11.50
2018-12-21T19:19:05.238Z,11.50
2018-12-21T19:21:33.749Z,11.50
2018-12-21T19:24:02.445Z,11.50
2018-12-21T19:26:30.997Z,11.50
2018-12-21T19:28:59.591Z,11.50
2018-12-21T19:31:28.114Z,11.40
2018-12-21T19:33:56.652Z,11.40
2018-12-21T19:36:25.203Z,11.40
2018-12-21T19:38:53.812Z,11.50
2018-12-21T19:41:22.449Z,11.40
2018-12-21T19:43:51.004Z,11.40
2018-12-21T19:46:19.823Z,11.40
2018-12-21T19:48:48.343Z,11.30
2018-12-21T19:51:17.185Z,11.40
2018-12-21T19:53:46.055Z,11.30
2018-12-21T19:57:04.198Z,11.30
2018-12-21T19:59:27.124Z,11.30
2018-12-21T20:01:55.656Z,11.20
2018-12-21T20:04:24.306Z,11.20
2018-12-21T20:06:53.054Z,11.20
2018-12-21T20:09:21.782Z,11.20
2018-12-21T20:11:50.414Z,11.20
2018-12-21T20:14:18.943Z,11.20
2018-12-21T20:16:47.565Z,11.20
2018-12-21T20:19:16.180Z,11.20
2018-12-21T20:21:44.768Z,11.20
2018-12-21T20:24:13.254Z,11.20
2018-12-21T20:26:45.171Z,11.20
2018-12-21T20:29:13.727Z,11.20
2018-12-21T20:31:42.545Z,11.20
2018-12-21T20:34:11.138Z,11.20
2018-12-21T20:36:39.818Z,11.10
2018-12-21T20:39:12.695Z,11.20
2018-12-21T20:41:41.399Z,11.10
2018-12-21T20:44:09.979Z,11.10
2018-12-21T20:46:38.485Z,11.10
2018-12-21T20:49:06.988Z,11.00
2018-12-21T20:51:41.127Z,11.00
2018-12-21T20:54:09.939Z,11.00
2018-12-21T20:56:39.221Z,11.00
2018-12-21T20:59:11.077Z,11.00
2018-12-21T21:01:39.706Z,11.00
2018-12-21T21:04:08.680Z,11.00
2018-12-21T21:06:37.212Z,11.00
2018-12-21T21:09:08.501Z,11.00
2018-12-21T21:11:37.070Z,11.00
2018-12-21T21:14:06.100Z,10.90
2018-12-21T21:16:34.890Z,10.90
2018-12-21T21:19:03.548Z,10.90
2018-12-21T21:21:32.096Z,10.90
2018-12-21T21:24:00.620Z,10.90
2018-12-21T21:26:29.224Z,10.80
2018-12-21T21:28:57.844Z,10.80
2018-12-21T21:31:28.025Z,10.80
2018-12-21T21:33:56.711Z,10.80
2018-12-21T21:36:25.203Z,10.80
2018-12-21T21:38:53.708Z,10.80
2018-12-21T21:41:22.246Z,10.80
2018-12-21T21:43:50.714Z,10.80
2018-12-21T21:46:19.360Z,10.80
2018-12-21T21:48:47.909Z,10.80
2018-12-21T21:51:26.302Z,10.80
2018-12-21T21:53:57.237Z,10.80
2018-12-21T21:56:28.521Z,10.80
2018-12-21T21:58:57.035Z,10.90
2018-12-21T22:01:25.543Z,10.80
2018-12-21T22:03:54.076Z,10.90
2018-12-21T22:06:22.733Z,10.90
2018-12-21T22:08:51.243Z,10.90
2018-12-21T22:11:19.833Z,10.80
2018-12-21T22:13:48.604Z,10.90
2018-12-21T22:16:17.280Z,10.80
2018-12-21T22:18:45.986Z,10.80
2018-12-21T22:21:14.554Z,10.80
2018-12-21T22:23:43.056Z,10.80
2018-12-21T22:26:11.622Z,10.80
2018-12-21T22:28:40.216Z,10.70
2018-12-21T22:31:08.794Z,10.70
2018-12-21T22:33:37.583Z,10.70
2018-12-21T22:36:06.107Z,10.70
2018-12-21T22:38:34.623Z,10.70
2018-12-21T22:41:03.339Z,10.60
2018-12-21T22:43:31.871Z,10.70
2018-12-21T22:46:00.401Z,10.60
2018-12-21T22:48:28.970Z,10.70
2018-12-21T22:50:57.494Z,10.60
2018-12-21T22:53:26.053Z,10.60
2018-12-21T22:55:54.580Z,10.70
2018-12-21T22:58:23.066Z,10.70
2018-12-21T23:00:51.710Z,10.60
2018-12-21T23:03:20.292Z,10.70
2018-12-21T23:05:48.827Z,10.60
2018-12-21T23:08:17.324Z,10.70
2018-12-21T23:10:46.141Z,10.60
2018-12-21T23:13:14.824Z,10.70
2018-12-21T23:15:43.400Z,10.70
2018-12-21T23:18:11.970Z,10.70
2018-12-21T23:20:40.692Z,10.70
2018-12-21T23:23:09.158Z,10.70
2018-12-21T23:25:37.758Z,10.70
2018-12-21T23:28:06.354Z,10.70
2018-12-21T23:30:34.862Z,10.60
2018-12-21T23:33:03.371Z,10.60
2018-12-21T23:35:31.982Z,10.60
2018-12-21T23:38:00.554Z,10.60
2018-12-21T23:40:29.043Z,10.60
2018-12-21T23:42:57.601Z,10.60
2018-12-21T23:45:26.318Z,10.60
2018-12-21T23:47:54.906Z,10.60
2018-12-21T23:50:23.397Z,10.60
2018-12-21T23:52:52.142Z,10.60
2018-12-21T23:55:20.728Z,10.60
2018-12-21T23:57:49.244Z,10.60
